Time;durP1;ratioP1;P1;durP2;ratioP2;P2;SDS_P1;SDS_P2;PMS_P1;PMS_P2;Temp;Humidity;BMP_temperature;BMP_pressure;BME280_temperature;BME280_humidity;BME280_pressure;Samples;Min_cycle;Max_cycle;Signal;HPM_P1;HPM_P2
2023/09/27 00:00:37;;;;;;;0.93;0.82;;;;;;;;;;5000616;28;20034;-82
2023/09/27 00:03:04;;;;;;;0.52;0.30;;;;;;;;;;5016697;28;20061;-83
2023/09/27 00:05:30;;;;;;;0.30;0.28;;;;;;;;;;5015862;28;20033;-84
2023/09/27 00:07:57;;;;;;;0.28;0.28;;;;;;;;;;5015471;28;20088;-83
2023/09/27 00:10:23;;;;;;;0.77;0.75;;;;;;;;;;4998455;28;20063;-83
2023/09/27 00:12:49;;;;;;;0.20;0.20;;;;;;;;;;4997411;28;20038;-83
2023/09/27 00:15:15;;;;;;;0.20;0.20;;;;;;;;;;5015567;28;20124;-84
2023/09/27 00:17:42;;;;;;;0.30;0.30;;;;;;;;;;5012704;28;20112;-82
2023/09/27 00:20:15;;;;;;;0.52;0.30;;;;;;;;;;5013335;28;20171;-82
2023/09/27 00:22:42;;;;;;;0.85;0.38;;;;;;;;;;5013037;28;20052;-82
2023/09/27 00:25:08;;;;;;;0.20;0.20;;;;;;;;;;4995662;28;20115;-82
2023/09/27 00:27:36;;;;;;;0.40;0.35;;;;;;;;;;5012213;28;20125;-82
2023/09/27 00:30:03;;;;;;;0.45;0.45;;;;;;;;;;5011762;28;20038;-82
2023/09/27 00:32:30;;;;;;;0.32;0.32;;;;;;;;;;4997892;28;20044;-82
2023/09/27 00:34:56;;;;;;;0.82;0.35;;;;;;;;;;5014073;28;20058;-82
2023/09/27 00:37:22;;;;;;;0.98;0.60;;;;;;;;;;5013163;28;20076;-82
2023/09/27 00:39:48;;;;;;;0.70;0.47;;;;;;;;;;5011205;28;20049;-82
2023/09/27 00:42:14;;;;;;;0.20;0.20;;;;;;;;;;5011947;28;20045;-82
2023/09/27 00:44:40;;;;;;;0.20;0.10;;;;;;;;;;4996409;28;20041;-82
2023/09/27 00:47:06;;;;;;;0.20;0.17;;;;;;;;;;4997889;28;20038;-82
2023/09/27 00:49:33;;;;;;;2.92;0.47;;;;;;;;;;5011752;28;20056;-82
2023/09/27 00:51:59;;;;;;;0.25;0.25;;;;;;;;;;4997605;28;20037;-82
2023/09/27 00:54:26;;;;;;;0.43;0.32;;;;;;;;;;5015407;28;20034;-82
2023/09/27 00:56:52;;;;;;;0.20;0.10;;;;;;;;;;5013191;28;20038;-83
2023/09/27 00:59:19;;;;;;;0.90;0.50;;;;;;;;;;4997527;28;20038;-83
2023/09/27 01:01:46;;;;;;;0.20;0.15;;;;;;;;;;4993903;28;20037;-82
2023/09/27 01:04:14;;;;;;;0.30;0.20;;;;;;;;;;5011072;28;20037;-83
2023/09/27 01:06:40;;;;;;;0.20;0.10;;;;;;;;;;5014016;28;20459;-83
2023/09/27 01:09:06;;;;;;;0.40;0.20;;;;;;;;;;5014235;28;20916;-82
2023/09/27 01:11:33;;;;;;;0.20;0.13;;;;;;;;;;4999225;28;20038;-82
2023/09/27 01:13:59;;;;;;;0.20;0.10;;;;;;;;;;4998459;28;20048;-83
2023/09/27 01:16:25;;;;;;;0.30;0.30;;;;;;;;;;5012080;28;20124;-83
2023/09/27 01:18:51;;;;;;;0.25;0.22;;;;;;;;;;5015983;28;20030;-84
2023/09/27 01:21:19;;;;;;;0.60;0.32;;;;;;;;;;5014169;28;20354;-83
2023/09/27 01:23:47;;;;;;;1.10;1.00;;;;;;;;;;5016701;28;20042;-83
2023/09/27 01:26:13;;;;;;;0.50;0.50;;;;;;;;;;5020700;28;20037;-82
2023/09/27 01:28:41;;;;;;;0.22;0.22;;;;;;;;;;5017449;28;20065;-83
2023/09/27 01:31:07;;;;;;;0.40;0.30;;;;;;;;;;5031608;28;20056;-82
2023/09/27 01:33:33;;;;;;;0.32;0.25;;;;;;;;;;5001262;28;20046;-82
2023/09/27 01:35:59;;;;;;;0.75;0.63;;;;;;;;;;5004534;28;20089;-83
2023/09/27 01:38:25;;;;;;;0.50;0.50;;;;;;;;;;5018680;28;20042;-82
2023/09/27 01:40:51;;;;;;;1.30;0.40;;;;;;;;;;5015881;28;20053;-83
2023/09/27 01:43:17;;;;;;;0.43;0.43;;;;;;;;;;5017845;28;22258;-82
2023/09/27 01:45:44;;;;;;;0.40;0.35;;;;;;;;;;5015958;28;20048;-83
2023/09/27 01:48:10;;;;;;;0.43;0.43;;;;;;;;;;5000578;28;20104;-83
2023/09/27 01:50:36;;;;;;;0.50;0.50;;;;;;;;;;4991690;28;20277;-83
2023/09/27 01:53:03;;;;;;;0.63;0.40;;;;;;;;;;5014129;28;20108;-82
2023/09/27 01:55:29;;;;;;;0.47;0.43;;;;;;;;;;5015626;28;20042;-82
2023/09/27 01:57:56;;;;;;;0.98;0.90;;;;;;;;;;4998285;28;20055;-82
2023/09/27 02:00:22;;;;;;;0.32;0.32;;;;;;;;;;5014224;28;20037;-82
2023/09/27 02:02:55;;;;;;;0.35;0.30;;;;;;;;;;5012265;28;20049;-82
2023/09/27 02:05:21;;;;;;;0.20;0.20;;;;;;;;;;5034777;28;20045;-82
2023/09/27 02:07:47;;;;;;;0.30;0.25;;;;;;;;;;5002683;28;20054;-83
2023/09/27 02:10:14;;;;;;;0.40;0.40;;;;;;;;;;5004174;28;20042;-83
2023/09/27 02:12:40;;;;;;;0.63;0.60;;;;;;;;;;5002060;28;20045;-83
2023/09/27 02:15:10;;;;;;;0.20;0.10;;;;;;;;;;5017971;28;20133;-82
2023/09/27 02:17:37;;;;;;;2.10;0.50;;;;;;;;;;5017087;28;20101;-82
2023/09/27 02:20:12;;;;;;;0.20;0.10;;;;;;;;;;5018698;28;20549;-82
2023/09/27 02:22:40;;;;;;;0.20;0.20;;;;;;;;;;5002819;28;20092;-82
2023/09/27 02:25:09;;;;;;;0.20;0.20;;;;;;;;;;5002750;28;20096;-82
2023/09/27 02:27:35;;;;;;;0.20;0.10;;;;;;;;;;5018574;28;20038;-83
2023/09/27 02:30:01;;;;;;;0.88;0.70;;;;;;;;;;5016850;28;20065;-82
2023/09/27 02:32:27;;;;;;;0.50;0.45;;;;;;;;;;4999088;28;20048;-83
2023/09/27 02:34:53;;;;;;;0.30;0.28;;;;;;;;;;4999252;28;20104;-84
2023/09/27 02:37:20;;;;;;;0.75;0.70;;;;;;;;;;5002883;28;20239;-83
2023/09/27 02:39:47;;;;;;;0.57;0.57;;;;;;;;;;5006655;28;20073;-83
2023/09/27 02:42:13;;;;;;;0.40;0.30;;;;;;;;;;5001762;28;20041;-83
2023/09/27 02:44:40;;;;;;;0.20;0.17;;;;;;;;;;5019012;28;20048;-82
2023/09/27 02:47:07;;;;;;;0.20;0.20;;;;;;;;;;4997901;28;20048;-83
2023/09/27 02:49:36;;;;;;;0.40;0.32;;;;;;;;;;5017842;28;20065;-85
2023/09/27 02:52:02;;;;;;;1.50;0.85;;;;;;;;;;4996096;28;20052;-84
2023/09/27 02:54:28;;;;;;;0.80;0.52;;;;;;;;;;5000036;28;20049;-84
2023/09/27 02:56:55;;;;;;;0.20;0.20;;;;;;;;;;5006991;28;20045;-84
2023/09/27 02:59:21;;;;;;;0.50;0.50;;;;;;;;;;5014712;23;20869;-83
2023/09/27 03:01:47;;;;;;;0.25;0.25;;;;;;;;;;4968250;28;20081;-83
2023/09/27 03:04:15;;;;;;;0.50;0.50;;;;;;;;;;4977945;28;20042;-82
2023/09/27 03:06:42;;;;;;;0.40;0.40;;;;;;;;;;4969297;28;20043;-82
2023/09/27 03:09:12;;;;;;;0.65;0.28;;;;;;;;;;4966236;28;20034;-82
2023/09/27 03:11:41;;;;;;;0.85;0.30;;;;;;;;;;4987074;28;20150;-83
2023/09/27 03:14:08;;;;;;;1.10;0.63;;;;;;;;;;4950371;28;20078;-82
2023/09/27 03:16:34;;;;;;;0.30;0.30;;;;;;;;;;4967129;28;20041;-83
2023/09/27 03:19:00;;;;;;;0.77;0.73;;;;;;;;;;4966644;28;20073;-82
2023/09/27 03:21:26;;;;;;;0.52;0.45;;;;;;;;;;4945437;28;20259;-83
2023/09/27 03:23:53;;;;;;;0.20;0.20;;;;;;;;;;4962220;28;20049;-83
2023/09/27 03:26:20;;;;;;;0.32;0.32;;;;;;;;;;4967078;28;20125;-83
2023/09/27 03:28:46;;;;;;;0.20;0.10;;;;;;;;;;4955733;28;20054;-83
2023/09/27 03:31:12;;;;;;;0.47;0.47;;;;;;;;;;4952594;28;20034;-83
2023/09/27 03:33:38;;;;;;;0.52;0.52;;;;;;;;;;4955898;28;20050;-82
2023/09/27 03:36:04;;;;;;;0.30;0.30;;;;;;;;;;4989651;28;20411;-82
2023/09/27 03:38:32;;;;;;;0.40;0.17;;;;;;;;;;4974187;28;20643;-82
2023/09/27 03:40:58;;;;;;;0.32;0.32;;;;;;;;;;4990541;28;20073;-83
2023/09/27 03:43:24;;;;;;;0.35;0.30;;;;;;;;;;4953548;28;20035;-83
2023/09/27 03:45:51;;;;;;;0.20;0.10;;;;;;;;;;4963345;28;20041;-82
2023/09/27 03:48:19;;;;;;;0.30;0.30;;;;;;;;;;4957552;28;20046;-81
2023/09/27 03:50:45;;;;;;;0.90;0.38;;;;;;;;;;4986587;28;20065;-83
2023/09/27 03:53:11;;;;;;;0.20;0.10;;;;;;;;;;4954403;28;20290;-83
2023/09/27 03:55:37;;;;;;;2.60;0.85;;;;;;;;;;4975961;28;20083;-83
2023/09/27 03:58:03;;;;;;;0.40;0.40;;;;;;;;;;4964101;28;20506;-82
2023/09/27 04:00:29;;;;;;;0.22;0.17;;;;;;;;;;4964366;28;20034;-83
2023/09/27 04:02:55;;;;;;;0.30;0.30;;;;;;;;;;4956926;28;20046;-83
2023/09/27 04:05:23;;;;;;;0.35;0.35;;;;;;;;;;4967037;28;20081;-82
2023/09/27 04:07:49;;;;;;;0.90;0.47;;;;;;;;;;4970419;28;20415;-83
2023/09/27 04:10:17;;;;;;;0.28;0.25;;;;;;;;;;4950269;28;20139;-80
2023/09/27 04:12:43;;;;;;;0.70;0.60;;;;;;;;;;4946360;28;20039;-80
2023/09/27 04:15:09;;;;;;;0.68;0.63;;;;;;;;;;4944201;28;20063;-81
2023/09/27 04:17:37;;;;;;;0.20;0.10;;;;;;;;;;4953415;28;20046;-81
2023/09/27 04:20:14;;;;;;;0.25;0.25;;;;;;;;;;4952754;28;20100;-81
2023/09/27 04:22:44;;;;;;;0.30;0.30;;;;;;;;;;4951651;28;20491;-80
2023/09/27 04:25:14;;;;;;;0.20;0.20;;;;;;;;;;4961269;28;20113;-80
2023/09/27 04:27:42;;;;;;;0.22;0.13;;;;;;;;;;4957774;28;20329;-80
2023/09/27 04:30:11;;;;;;;0.68;0.57;;;;;;;;;;4972666;28;20046;-80
2023/09/27 04:32:38;;;;;;;0.68;0.38;;;;;;;;;;4962089;28;20055;-80
2023/09/27 04:35:04;;;;;;;0.35;0.35;;;;;;;;;;4967617;28;20046;-80
2023/09/27 04:37:30;;;;;;;0.30;0.30;;;;;;;;;;4952134;28;20137;-80
2023/09/27 04:39:56;;;;;;;0.22;0.15;;;;;;;;;;4952419;28;20071;-80
2023/09/27 04:42:22;;;;;;;0.40;0.40;;;;;;;;;;4945097;28;20115;-80
2023/09/27 04:44:49;;;;;;;0.40;0.32;;;;;;;;;;4944387;28;20108;-79
2023/09/27 04:47:15;;;;;;;0.47;0.22;;;;;;;;;;4973209;28;20403;-80
2023/09/27 04:49:41;;;;;;;0.57;0.38;;;;;;;;;;4985968;28;20295;-80
2023/09/27 04:52:07;;;;;;;0.30;0.30;;;;;;;;;;4958995;28;20046;-80
2023/09/27 04:54:33;;;;;;;0.70;0.50;;;;;;;;;;4952165;28;20137;-80
2023/09/27 04:56:59;;;;;;;0.50;0.43;;;;;;;;;;4956455;28;20031;-80
2023/09/27 04:59:25;;;;;;;0.55;0.28;;;;;;;;;;4946430;28;20031;-80
2023/09/27 05:01:51;;;;;;;0.52;0.47;;;;;;;;;;4947609;28;20131;-80
2023/09/27 05:04:17;;;;;;;1.00;0.80;;;;;;;;;;4942951;28;20185;-80
2023/09/27 05:06:43;;;;;;;0.50;0.47;;;;;;;;;;4963491;28;20217;-80
2023/09/27 05:09:11;;;;;;;0.77;0.77;;;;;;;;;;4958787;28;20042;-80
2023/09/27 05:11:37;;;;;;;0.68;0.68;;;;;;;;;;4973193;28;20058;-80
2023/09/27 05:14:05;;;;;;;0.20;0.10;;;;;;;;;;4965162;28;20559;-80
2023/09/27 05:16:35;;;;;;;0.20;0.10;;;;;;;;;;4990065;28;20409;-80
2023/09/27 05:19:01;;;;;;;2.00;0.55;;;;;;;;;;4976201;28;20057;-80
2023/09/27 05:21:27;;;;;;;0.30;0.30;;;;;;;;;;4989904;28;20126;-80
2023/09/27 05:23:53;;;;;;;0.68;0.57;;;;;;;;;;4977913;28;20081;-80
2023/09/27 05:26:19;;;;;;;0.20;0.10;;;;;;;;;;4967792;28;20034;-80
2023/09/27 05:28:45;;;;;;;0.47;0.40;;;;;;;;;;4959557;28;20149;-80
2023/09/27 05:31:11;;;;;;;0.43;0.35;;;;;;;;;;4956292;28;21251;-83
2023/09/27 05:33:37;;;;;;;0.57;0.52;;;;;;;;;;4967576;28;20431;-82
2023/09/27 05:36:04;;;;;;;1.02;0.50;;;;;;;;;;4969949;28;20062;-80
2023/09/27 05:38:30;;;;;;;0.68;0.32;;;;;;;;;;4966303;28;20126;-80
2023/09/27 05:40:56;;;;;;;1.00;0.75;;;;;;;;;;4962411;28;20081;-82
2023/09/27 05:43:22;;;;;;;0.70;0.70;;;;;;;;;;4966687;28;20043;-83
2023/09/27 05:45:48;;;;;;;0.40;0.40;;;;;;;;;;4969859;28;20423;-83
2023/09/27 05:48:14;;;;;;;0.80;0.40;;;;;;;;;;4965106;28;20050;-80
2023/09/27 05:50:44;;;;;;;0.35;0.35;;;;;;;;;;4974577;28;20038;-81
2023/09/27 05:53:11;;;;;;;0.30;0.30;;;;;;;;;;4971214;28;20039;-80
2023/09/27 05:55:37;;;;;;;1.27;0.88;;;;;;;;;;4951001;28;20042;-80
2023/09/27 05:58:04;;;;;;;0.25;0.25;;;;;;;;;;4966381;28;20452;-80
2023/09/27 06:00:37;;;;;;;0.25;0.22;;;;;;;;;;4971422;28;20046;-80
2023/09/27 06:03:04;;;;;;;0.52;0.40;;;;;;;;;;4950033;28;20042;-80
2023/09/27 06:05:30;;;;;;;0.22;0.22;;;;;;;;;;4951228;28;20503;-80
2023/09/27 06:07:56;;;;;;;0.40;0.28;;;;;;;;;;4949405;28;20062;-80
2023/09/27 06:10:22;;;;;;;0.60;0.57;;;;;;;;;;4961897;28;20043;-81
2023/09/27 06:12:48;;;;;;;0.88;0.85;;;;;;;;;;4964607;28;20551;-81
2023/09/27 06:15:15;;;;;;;0.25;0.22;;;;;;;;;;4983132;28;20487;-81
2023/09/27 06:17:42;;;;;;;0.20;0.10;;;;;;;;;;4964965;28;20061;-81
2023/09/27 06:20:15;;;;;;;0.20;0.10;;;;;;;;;;4953797;28;20511;-81
2023/09/27 06:22:42;;;;;;;0.50;0.38;;;;;;;;;;4955717;28;20039;-81
2023/09/27 06:25:08;;;;;;;0.22;0.22;;;;;;;;;;4956848;28;20035;-81
2023/09/27 06:27:34;;;;;;;0.20;0.10;;;;;;;;;;4963312;28;20043;-81
2023/09/27 06:30:01;;;;;;;0.38;0.38;;;;;;;;;;4963623;28;20078;-81
2023/09/27 06:32:27;;;;;;;0.77;0.43;;;;;;;;;;4964779;28;20066;-81
2023/09/27 06:34:53;;;;;;;3.17;0.55;;;;;;;;;;4951974;28;20509;-81
2023/09/27 06:37:20;;;;;;;0.30;0.20;;;;;;;;;;4970135;28;20121;-80
2023/09/27 06:39:46;;;;;;;0.52;0.50;;;;;;;;;;4966114;28;20051;-81
2023/09/27 06:42:12;;;;;;;0.77;0.68;;;;;;;;;;4970251;28;20499;-82
2023/09/27 06:44:40;;;;;;;0.20;0.10;;;;;;;;;;4984616;28;20035;-81
2023/09/27 06:47:06;;;;;;;0.30;0.30;;;;;;;;;;4968104;28;20078;-82
2023/09/27 06:49:32;;;;;;;0.25;0.25;;;;;;;;;;4967307;28;20093;-81
2023/09/27 06:51:58;;;;;;;0.20;0.10;;;;;;;;;;4953584;28;20450;-81
2023/09/27 06:54:25;;;;;;;0.20;0.10;;;;;;;;;;4967892;28;20039;-81
2023/09/27 06:56:51;;;;;;;0.30;0.30;;;;;;;;;;4947399;28;20050;-81
2023/09/27 06:59:17;;;;;;;0.20;0.10;;;;;;;;;;4966483;28;20038;-82
2023/09/27 07:01:43;;;;;;;0.88;0.28;;;;;;;;;;4944658;28;20093;-82
2023/09/27 07:04:09;;;;;;;0.20;0.10;;;;;;;;;;4968339;28;20506;-80
2023/09/27 07:06:36;;;;;;;0.30;0.20;;;;;;;;;;4965851;28;20050;-81
2023/09/27 07:09:03;;;;;;;1.02;0.35;;;;;;;;;;4950014;28;20569;-81
2023/09/27 07:11:29;;;;;;;0.20;0.10;;;;;;;;;;4986002;28;20068;-80
2023/09/27 07:13:55;;;;;;;0.20;0.20;;;;;;;;;;4965958;28;20416;-81
2023/09/27 07:16:29;;;;;;;0.30;0.30;;;;;;;;;;4983374;28;20097;-81
2023/09/27 07:18:56;;;;;;;0.68;0.28;;;;;;;;;;4982860;28;20118;-82
2023/09/27 07:21:24;;;;;;;0.73;0.52;;;;;;;;;;4969388;28;20038;-80
2023/09/27 07:23:51;;;;;;;0.47;0.35;;;;;;;;;;4954223;28;20065;-81
2023/09/27 07:26:17;;;;;;;0.82;0.75;;;;;;;;;;4966323;28;20133;-80
2023/09/27 07:28:45;;;;;;;0.20;0.20;;;;;;;;;;4962867;28;20161;-82
2023/09/27 07:31:13;;;;;;;0.22;0.22;;;;;;;;;;4983205;28;20050;-81
2023/09/27 07:33:39;;;;;;;0.45;0.38;;;;;;;;;;4968209;28;20057;-81
2023/09/27 07:36:08;;;;;;;0.47;0.35;;;;;;;;;;4971509;28;20284;-81
2023/09/27 07:38:35;;;;;;;0.55;0.52;;;;;;;;;;4987770;28;20334;-82
2023/09/27 07:41:01;;;;;;;0.40;0.40;;;;;;;;;;4979849;28;20057;-83
2023/09/27 07:43:27;;;;;;;0.65;0.63;;;;;;;;;;4970060;28;20445;-81
2023/09/27 07:45:54;;;;;;;0.65;0.38;;;;;;;;;;4966285;28;20065;-81
2023/09/27 07:48:21;;;;;;;0.20;0.20;;;;;;;;;;4968504;28;20039;-82
2023/09/27 07:50:47;;;;;;;0.35;0.35;;;;;;;;;;4964040;28;20515;-81
2023/09/27 07:53:13;;;;;;;0.35;0.32;;;;;;;;;;4955415;28;20121;-80
2023/09/27 07:55:46;;;;;;;0.88;0.85;;;;;;;;;;4946722;28;20042;-81
2023/09/27 07:58:13;;;;;;;0.40;0.38;;;;;;;;;;4984518;28;20118;-81
2023/09/27 08:00:43;;;;;;;0.28;0.20;;;;;;;;;;4949710;28;20105;-81
2023/09/27 08:03:09;;;;;;;0.35;0.35;;;;;;;;;;4960495;28;20054;-81
2023/09/27 08:05:45;;;;;;;0.77;0.77;;;;;;;;;;4949484;28;20046;-81
2023/09/27 08:08:11;;;;;;;0.28;0.28;;;;;;;;;;4949030;28;20034;-80
2023/09/27 08:10:45;;;;;;;0.35;0.35;;;;;;;;;;4965952;28;20118;-81
2023/09/27 08:13:15;;;;;;;0.70;0.35;;;;;;;;;;4946577;28;20076;-80
2023/09/27 08:15:42;;;;;;;0.20;0.20;;;;;;;;;;4950150;28;20054;-81
2023/09/27 08:18:08;;;;;;;0.20;0.13;;;;;;;;;;4963321;28;20046;-81
2023/09/27 08:20:37;;;;;;;0.52;0.28;;;;;;;;;;4968555;28;20118;-81
2023/09/27 08:23:03;;;;;;;0.28;0.28;;;;;;;;;;4947356;28;20066;-81
2023/09/27 08:25:29;;;;;;;0.40;0.40;;;;;;;;;;4971182;28;20122;-81
2023/09/27 08:27:56;;;;;;;1.23;0.68;;;;;;;;;;4957209;28;20050;-81
2023/09/27 08:30:22;;;;;;;1.95;0.73;;;;;;;;;;4964336;28;20435;-81
2023/09/27 08:32:48;;;;;;;0.30;0.30;;;;;;;;;;4967738;28;20054;-81
2023/09/27 08:35:14;;;;;;;0.25;0.15;;;;;;;;;;4969798;28;20075;-81
2023/09/27 08:37:40;;;;;;;0.20;0.10;;;;;;;;;;4965605;28;20585;-81
2023/09/27 08:40:13;;;;;;;0.20;0.10;;;;;;;;;;4954663;28;20093;-81
2023/09/27 08:42:39;;;;;;;;;;;;;;;;;;4949567;28;21157;-80
2023/09/27 08:45:09;;;;;;;0.20;0.10;;;;;;;;;;4967701;28;19949;-81
2023/09/27 08:47:35;;;;;;;0.38;0.25;;;;;;;;;;4948004;28;20179;-81
2023/09/27 08:50:01;;;;;;;0.38;0.30;;;;;;;;;;4966874;28;20834;-81
2023/09/27 08:52:28;;;;;;;0.30;0.22;;;;;;;;;;4965253;28;20046;-81
2023/09/27 08:54:54;;;;;;;0.63;0.50;;;;;;;;;;4964872;28;20034;-80
2023/09/27 08:57:20;;;;;;;0.20;0.20;;;;;;;;;;4951022;28;20411;-81
2023/09/27 08:59:46;;;;;;;0.20;0.10;;;;;;;;;;4962876;23;20477;-83
2023/09/27 09:02:13;;;;;;;0.20;0.10;;;;;;;;;;4950726;28;20528;-82
2023/09/27 09:04:40;;;;;;;0.77;0.50;;;;;;;;;;4934296;28;20119;-82
2023/09/27 09:07:07;;;;;;;0.80;0.68;;;;;;;;;;4948898;28;20189;-82
2023/09/27 09:09:33;;;;;;;0.73;0.40;;;;;;;;;;4969635;28;20483;-84
2023/09/27 09:12:08;;;;;;;0.63;0.30;;;;;;;;;;4974945;28;20043;-82
2023/09/27 09:14:39;;;;;;;0.43;0.20;;;;;;;;;;4985934;28;20101;-82
2023/09/27 09:17:07;;;;;;;0.25;0.25;;;;;;;;;;4977094;28;20039;-83
2023/09/27 09:19:34;;;;;;;0.30;0.30;;;;;;;;;;4964632;28;20062;-83
2023/09/27 09:22:03;;;;;;;0.30;0.20;;;;;;;;;;4993173;28;20049;-84
2023/09/27 09:24:29;;;;;;;0.98;0.77;;;;;;;;;;4991000;28;21750;-82
2023/09/27 09:27:09;;;;;;;0.25;0.25;;;;;;;;;;4993121;28;20126;-84
2023/09/27 09:29:47;;;;;;;0.43;0.43;;;;;;;;;;4991660;28;20114;-83
2023/09/27 09:32:18;;;;;;;0.35;0.25;;;;;;;;;;4988513;28;20045;-85
2023/09/27 09:34:44;;;;;;;0.20;0.20;;;;;;;;;;4994463;28;20247;-83
2023/09/27 09:37:21;;;;;;;0.20;0.10;;;;;;;;;;4976866;28;20515;-83
2023/09/27 09:39:51;;;;;;;0.80;0.43;;;;;;;;;;4974022;28;20035;-83
2023/09/27 09:42:33;;;;;;;0.30;0.30;;;;;;;;;;4974200;28;20070;-83
2023/09/27 09:45:00;;;;;;;0.60;0.60;;;;;;;;;;4987893;28;20050;-82
2023/09/27 09:47:26;;;;;;;0.40;0.32;;;;;;;;;;4987893;28;20053;-83
2023/09/27 09:49:53;;;;;;;1.45;0.63;;;;;;;;;;4970374;28;20089;-83
2023/09/27 09:52:22;;;;;;;0.50;0.50;;;;;;;;;;4974441;28;20058;-84
2023/09/27 09:54:49;;;;;;;0.43;0.20;;;;;;;;;;4979659;28;20511;-83
2023/09/27 09:57:18;;;;;;;0.32;0.30;;;;;;;;;;4996560;28;20046;-83
2023/09/27 09:59:56;;;;;;;0.45;0.40;;;;;;;;;;4981662;28;20039;-84
2023/09/27 10:02:28;;;;;;;0.30;0.15;;;;;;;;;;5000981;28;20449;-85
2023/09/27 10:04:56;;;;;;;1.27;0.73;;;;;;;;;;4982527;28;20066;-86
2023/09/27 10:07:23;;;;;;;0.30;0.28;;;;;;;;;;4977764;28;20058;-84
2023/09/27 10:09:52;;;;;;;0.30;0.20;;;;;;;;;;4985312;28;20101;-85
2023/09/27 10:12:21;;;;;;;0.50;0.43;;;;;;;;;;4977663;28;20042;-84
2023/09/27 10:14:47;;;;;;;0.40;0.30;;;;;;;;;;4978095;28;20101;-84
2023/09/27 10:17:20;;;;;;;0.43;0.43;;;;;;;;;;4976540;28;20520;-84
2023/09/27 10:20:11;;;;;;;0.45;0.20;;;;;;;;;;4989075;28;20514;-85
2023/09/27 10:22:38;;;;;;;0.60;0.22;;;;;;;;;;4978881;28;20034;-84
2023/09/27 10:25:04;;;;;;;0.20;0.20;;;;;;;;;;4979630;28;20042;-84
2023/09/27 10:27:49;;;;;;;0.20;0.10;;;;;;;;;;4992638;28;20113;-84
2023/09/27 10:30:15;;;;;;;1.63;0.52;;;;;;;;;;4987898;28;20545;-84
2023/09/27 10:32:41;;;;;;;0.20;0.20;;;;;;;;;;4975464;28;20504;-84
2023/09/27 10:35:17;;;;;;;0.40;0.20;;;;;;;;;;4976157;28;20515;-83
2023/09/27 10:37:59;;;;;;;0.20;0.13;;;;;;;;;;4977241;28;20318;-83
2023/09/27 10:40:25;;;;;;;0.20;0.10;;;;;;;;;;4976256;28;20042;-85
2023/09/27 10:42:52;;;;;;;0.35;0.28;;;;;;;;;;4959176;28;20558;-86
2023/09/27 10:45:18;;;;;;;0.70;0.70;;;;;;;;;;4967505;28;20054;-84
2023/09/27 10:47:46;;;;;;;0.25;0.25;;;;;;;;;;4958498;28;20077;-84
2023/09/27 10:50:12;;;;;;;0.45;0.45;;;;;;;;;;4972795;28;20043;-84
2023/09/27 10:52:39;;;;;;;0.20;0.10;;;;;;;;;;4970294;28;20384;-84
2023/09/27 10:55:11;;;;;;;0.20;0.20;;;;;;;;;;4973467;28;20038;-84
2023/09/27 10:57:39;;;;;;;0.20;0.10;;;;;;;;;;4975469;28;20123;-87
2023/09/27 11:00:12;;;;;;;0.20;0.10;;;;;;;;;;4972367;28;20038;-85
2023/09/27 11:02:38;;;;;;;0.20;0.13;;;;;;;;;;4969003;28;20065;-85
2023/09/27 11:05:05;;;;;;;0.20;0.00;;;;;;;;;;4983365;28;20050;-84
2023/09/27 11:07:47;;;;;;;0.20;0.10;;;;;;;;;;4973480;28;20066;-85
2023/09/27 11:10:13;;;;;;;;;;;;;;;;;;4972215;28;20069;-84
2023/09/27 11:12:39;;;;;;;0.68;0.30;;;;;;;;;;4972314;28;20425;-84
2023/09/27 11:15:06;;;;;;;0.20;0.10;;;;;;;;;;4969341;28;20074;-84
2023/09/27 11:17:32;;;;;;;0.25;0.20;;;;;;;;;;4985924;28;20100;-84
2023/09/27 11:20:10;;;;;;;0.70;0.28;;;;;;;;;;4969365;28;20583;-84
2023/09/27 11:22:36;;;;;;;0.30;0.20;;;;;;;;;;4973942;28;20034;-85
2023/09/27 11:25:02;;;;;;;0.20;0.10;;;;;;;;;;4952492;28;20061;-85
2023/09/27 11:27:28;;;;;;;0.20;0.10;;;;;;;;;;4969718;28;20155;-85
2023/09/27 11:29:54;;;;;;;0.20;0.20;;;;;;;;;;4968177;28;20051;-85
2023/09/27 11:32:21;;;;;;;0.20;0.10;;;;;;;;;;4987331;28;20043;-83
2023/09/27 11:34:54;;;;;;;0.20;0.00;;;;;;;;;;4973177;28;20101;-83
2023/09/27 11:37:23;;;;;;;0.20;0.10;;;;;;;;;;4971193;28;20061;-84
2023/09/27 11:39:50;;;;;;;0.30;0.10;;;;;;;;;;4969908;28;20514;-86
2023/09/27 11:42:21;;;;;;;0.20;0.10;;;;;;;;;;4972046;28;20045;-85
2023/09/27 11:45:00;;;;;;;0.43;0.25;;;;;;;;;;4966786;28;20538;-85
2023/09/27 11:47:26;;;;;;;0.40;0.20;;;;;;;;;;4970302;28;20074;-85
2023/09/27 11:49:52;;;;;;;0.20;0.10;;;;;;;;;;4966356;28;20077;-85
2023/09/27 11:52:18;;;;;;;0.20;0.10;;;;;;;;;;4970128;28;20094;-86
2023/09/27 11:54:45;;;;;;;0.70;0.40;;;;;;;;;;4969438;28;20043;-84
2023/09/27 11:57:11;;;;;;;0.20;0.10;;;;;;;;;;4966346;28;20039;-85
2023/09/27 11:59:39;;;;;;;0.20;0.20;;;;;;;;;;4971107;28;20065;-87
2023/09/27 12:02:05;;;;;;;0.30;0.30;;;;;;;;;;4971192;28;20086;-84
2023/09/27 12:04:33;;;;;;;0.20;0.10;;;;;;;;;;4985335;28;20097;-84
2023/09/27 12:06:59;;;;;;;0.20;0.10;;;;;;;;;;4967741;28;20046;-84
2023/09/27 12:09:25;;;;;;;0.20;0.10;;;;;;;;;;4969122;28;20077;-83
2023/09/27 12:11:51;;;;;;;0.30;0.10;;;;;;;;;;4969000;28;20089;-86
2023/09/27 12:14:17;;;;;;;0.20;0.13;;;;;;;;;;4967868;28;20053;-86
2023/09/27 12:16:43;;;;;;;0.20;0.10;;;;;;;;;;4968330;28;20054;-84
2023/09/27 12:19:09;;;;;;;0.38;0.38;;;;;;;;;;4977338;28;20039;-83
2023/09/27 12:21:38;;;;;;;1.65;0.20;;;;;;;;;;4969282;28;20062;-83
2023/09/27 12:24:05;;;;;;;1.08;0.28;;;;;;;;;;4983016;28;20499;-83
2023/09/27 12:26:33;;;;;;;0.20;0.15;;;;;;;;;;4967791;28;20042;-83
2023/09/27 12:28:59;;;;;;;0.20;0.10;;;;;;;;;;4962370;28;20050;-85
2023/09/27 12:31:25;;;;;;;0.30;0.20;;;;;;;;;;4987668;28;20045;-84
2023/09/27 12:33:51;;;;;;;0.43;0.32;;;;;;;;;;4968937;28;20077;-85
2023/09/27 12:36:17;;;;;;;0.20;0.10;;;;;;;;;;4944325;28;20046;-87
2023/09/27 12:38:44;;;;;;;0.40;0.20;;;;;;;;;;4968388;28;20049;-84
2023/09/27 12:41:10;;;;;;;0.20;0.10;;;;;;;;;;4966079;28;20066;-84
2023/09/27 12:43:36;;;;;;;0.50;0.30;;;;;;;;;;4974710;28;20078;-83
2023/09/27 12:46:02;;;;;;;0.20;0.15;;;;;;;;;;4963828;28;20074;-85
2023/09/27 12:48:31;;;;;;;0.32;0.20;;;;;;;;;;4953663;28;20068;-85
2023/09/27 12:50:57;;;;;;;0.30;0.28;;;;;;;;;;4965806;28;20043;-84
2023/09/27 12:53:23;;;;;;;0.20;0.10;;;;;;;;;;4970010;28;20089;-83
2023/09/27 12:55:49;;;;;;;0.73;0.55;;;;;;;;;;4972060;28;20054;-85
2023/09/27 12:58:16;;;;;;;0.20;0.10;;;;;;;;;;4966084;28;20080;-86
2023/09/27 13:00:42;;;;;;;0.55;0.10;;;;;;;;;;4968444;28;20054;-85
2023/09/27 13:03:08;;;;;;;0.65;0.20;;;;;;;;;;4970425;28;20038;-85
2023/09/27 13:05:37;;;;;;;0.20;0.10;;;;;;;;;;4962975;28;20471;-84
2023/09/27 13:08:04;;;;;;;0.38;0.25;;;;;;;;;;4964600;28;20515;-84
2023/09/27 13:10:32;;;;;;;0.20;0.00;;;;;;;;;;4985898;28;20639;-83
2023/09/27 13:12:59;;;;;;;0.35;0.32;;;;;;;;;;4958915;28;20051;-83
2023/09/27 13:15:25;;;;;;;0.20;0.10;;;;;;;;;;4974184;28;20311;-83
2023/09/27 13:17:51;;;;;;;0.80;0.20;;;;;;;;;;4987899;28;20085;-83
2023/09/27 13:20:17;;;;;;;0.20;0.00;;;;;;;;;;4974788;28;20034;-83
2023/09/27 13:22:43;;;;;;;0.20;0.20;;;;;;;;;;4970132;28;20039;-85
2023/09/27 13:25:11;;;;;;;0.28;0.20;;;;;;;;;;4971850;28;20046;-85
2023/09/27 13:27:39;;;;;;;0.40;0.40;;;;;;;;;;4966296;28;20050;-86
2023/09/27 13:30:10;;;;;;;0.20;0.20;;;;;;;;;;4970465;28;20043;-86
2023/09/27 13:32:44;;;;;;;0.20;0.13;;;;;;;;;;4965516;28;20980;-85
2023/09/27 13:35:12;;;;;;;0.30;0.30;;;;;;;;;;4982032;28;20049;-83
2023/09/27 13:37:39;;;;;;;0.20;0.20;;;;;;;;;;4984347;28;20126;-85
2023/09/27 13:40:05;;;;;;;0.20;0.20;;;;;;;;;;4994333;28;20038;-84
2023/09/27 13:42:32;;;;;;;0.20;0.10;;;;;;;;;;4967014;28;20046;-83
2023/09/27 13:45:02;;;;;;;0.30;0.15;;;;;;;;;;4966411;28;20050;-84
2023/09/27 13:47:29;;;;;;;0.20;0.00;;;;;;;;;;4971884;28;20047;-83
2023/09/27 13:49:55;;;;;;;0.20;0.10;;;;;;;;;;4971430;28;20042;-82
2023/09/27 13:52:21;;;;;;;0.20;0.08;;;;;;;;;;4989271;28;20132;-84
2023/09/27 13:54:47;;;;;;;0.20;0.10;;;;;;;;;;4956089;28;20047;-85
2023/09/27 13:57:14;;;;;;;0.20;0.10;;;;;;;;;;4973245;28;20422;-83
2023/09/27 13:59:40;;;;;;;0.30;0.20;;;;;;;;;;4996907;28;20507;-85
2023/09/27 14:02:14;;;;;;;0.20;0.05;;;;;;;;;;4954510;28;20070;-87
2023/09/27 14:04:49;;;;;;;0.20;0.10;;;;;;;;;;4954290;28;20070;-85
2023/09/27 14:07:15;;;;;;;0.20;0.10;;;;;;;;;;4974294;28;20089;-85
2023/09/27 14:09:41;;;;;;;0.20;0.10;;;;;;;;;;4974762;28;20515;-84
2023/09/27 14:12:07;;;;;;;0.20;0.20;;;;;;;;;;4966340;28;20407;-84
2023/09/27 14:14:33;;;;;;;0.20;0.10;;;;;;;;;;4985070;28;20034;-86
2023/09/27 14:17:01;;;;;;;0.35;0.22;;;;;;;;;;4967390;28;20038;-84
2023/09/27 14:19:27;;;;;;;0.30;0.10;;;;;;;;;;4968807;28;20042;-83
2023/09/27 14:21:54;;;;;;;0.30;0.20;;;;;;;;;;4981844;28;20078;-84
2023/09/27 14:24:21;;;;;;;0.30;0.10;;;;;;;;;;4966324;28;20085;-82
2023/09/27 14:26:48;;;;;;;0.20;0.10;;;;;;;;;;4973462;28;20454;-83
2023/09/27 14:29:14;;;;;;;0.20;0.20;;;;;;;;;;4963248;28;20046;-84
2023/09/27 14:31:41;;;;;;;0.20;0.10;;;;;;;;;;4985593;28;20510;-82
2023/09/27 14:34:07;;;;;;;0.20;0.10;;;;;;;;;;4970166;28;20047;-84
2023/09/27 14:36:35;;;;;;;0.20;0.10;;;;;;;;;;4969988;28;20062;-82
2023/09/27 14:39:03;;;;;;;0.20;0.10;;;;;;;;;;4987559;28;20047;-85
2023/09/27 14:41:29;;;;;;;0.30;0.10;;;;;;;;;;4966306;28;20042;-82
2023/09/27 14:43:59;;;;;;;0.20;0.08;;;;;;;;;;4963558;28;20462;-83